sensor_id;sensor_type;location;lat;lon;timestamp;P1;durP1;ratioP1;P2;durP2;ratioP2
23376;SDS011;14353;46.070;13.222;2022-09-17T00:01:07;0.22;;;0.20;;
23376;SDS011;14353;46.070;13.222;2022-09-17T00:03:41;0.20;;;0.20;;
23376;SDS011;14353;46.070;13.222;2022-09-17T00:06:09;0.38;;;0.22;;
23376;SDS011;14353;46.070;13.222;2022-09-17T00:08:37;0.30;;;0.20;;
23376;SDS011;14353;46.070;13.222;2022-09-17T00:11:12;0.20;;;0.13;;
23376;SDS011;14353;46.070;13.222;2022-09-17T00:13:41;0.43;;;0.30;;
23376;SDS011;14353;46.070;13.222;2022-09-17T00:16:09;0.30;;;0.20;;
23376;SDS011;14353;46.070;13.222;2022-09-17T00:18:37;0.20;;;0.20;;
23376;SDS011;14353;46.070;13.222;2022-09-17T00:21:14;0.43;;;0.10;;
23376;SDS011;14353;46.070;13.222;2022-09-17T00:23:42;0.43;;;0.22;;
23376;SDS011;14353;46.070;13.222;2022-09-17T00:26:08;0.40;;;0.20;;
23376;SDS011;14353;46.070;13.222;2022-09-17T00:28:34;0.10;;;0.10;;
23376;SDS011;14353;46.070;13.222;2022-09-17T00:31:05;0.10;;;0.10;;
23376;SDS011;14353;46.070;13.222;2022-09-17T00:33:32;0.20;;;0.20;;
23376;SDS011;14353;46.070;13.222;2022-09-17T00:35:59;0.20;;;0.20;;
23376;SDS011;14353;46.070;13.222;2022-09-17T00:38:26;0.20;;;0.10;;
23376;SDS011;14353;46.070;13.222;2022-09-17T00:40:52;0.20;;;0.10;;
23376;SDS011;14353;46.070;13.222;2022-09-17T00:43:33;0.38;;;0.30;;
23376;SDS011;14353;46.070;13.222;2022-09-17T00:46:07;0.25;;;0.10;;
23376;SDS011;14353;46.070;13.222;2022-09-17T00:48:42;0.10;;;0.10;;
23376;SDS011;14353;46.070;13.222;2022-09-17T00:51:09;0.22;;;0.13;;
23376;SDS011;14353;46.070;13.222;2022-09-17T00:53:40;0.15;;;0.15;;
23376;SDS011;14353;46.070;13.222;2022-09-17T00:56:21;0.40;;;0.25;;
23376;SDS011;14353;46.070;13.222;2022-09-17T00:58:51;0.28;;;0.20;;
23376;SDS011;14353;46.070;13.222;2022-09-17T01:01:17;0.20;;;0.20;;
23376;SDS011;14353;46.070;13.222;2022-09-17T01:03:46;0.20;;;0.10;;
23376;SDS011;14353;46.070;13.222;2022-09-17T01:06:34;0.40;;;0.20;;
23376;SDS011;14353;46.070;13.222;2022-09-17T01:11:48;0.20;;;0.10;;
23376;SDS011;14353;46.070;13.222;2022-09-17T01:17:24;0.20;;;0.10;;
23376;SDS011;14353;46.070;13.222;2022-09-17T01:42:04;0.20;;;0.20;;
23376;SDS011;14353;46.070;13.222;2022-09-17T01:44:24;0.08;;;0.08;;
23376;SDS011;14353;46.070;13.222;2022-09-17T01:47:12;0.05;;;0.05;;
23376;SDS011;14353;46.070;13.222;2022-09-17T01:49:44;0.22;;;0.10;;
23376;SDS011;14353;46.070;13.222;2022-09-17T01:52:12;0.15;;;0.10;;
23376;SDS011;14353;46.070;13.222;2022-09-17T01:54:41;0.35;;;0.10;;
23376;SDS011;14353;46.070;13.222;2022-09-17T01:57:15;0.20;;;0.20;;
23376;SDS011;14353;46.070;13.222;2022-09-17T02:00:05;0.15;;;0.15;;
23376;SDS011;14353;46.070;13.222;2022-09-17T02:02:33;0.10;;;0.10;;
23376;SDS011;14353;46.070;13.222;2022-09-17T02:05:05;0.10;;;0.10;;
23376;SDS011;14353;46.070;13.222;2022-09-17T02:07:39;0.20;;;0.20;;
23376;SDS011;14353;46.070;13.222;2022-09-17T02:10:11;0.10;;;0.10;;
23376;SDS011;14353;46.070;13.222;2022-09-17T02:12:45;0.22;;;0.20;;
23376;SDS011;14353;46.070;13.222;2022-09-17T02:15:21;0.43;;;0.10;;
23376;SDS011;14353;46.070;13.222;2022-09-17T02:17:57;0.10;;;0.10;;
23376;SDS011;14353;46.070;13.222;2022-09-17T02:20:41;0.10;;;0.10;;
23376;SDS011;14353;46.070;13.222;2022-09-17T02:23:12;0.20;;;0.10;;
23376;SDS011;14353;46.070;13.222;2022-09-17T02:25:51;0.13;;;0.10;;
23376;SDS011;14353;46.070;13.222;2022-09-17T02:31:04;0.10;;;0.10;;
23376;SDS011;14353;46.070;13.222;2022-09-17T02:33:31;0.40;;;0.30;;
23376;SDS011;14353;46.070;13.222;2022-09-17T02:35:59;0.32;;;0.25;;
23376;SDS011;14353;46.070;13.222;2022-09-17T02:38:28;0.22;;;0.15;;
23376;SDS011;14353;46.070;13.222;2022-09-17T02:40:58;0.10;;;0.10;;
23376;SDS011;14353;46.070;13.222;2022-09-17T02:49:32;0.10;;;0.10;;
23376;SDS011;14353;46.070;13.222;2022-09-17T02:52:22;0.20;;;0.20;;
23376;SDS011;14353;46.070;13.222;2022-09-17T02:57:39;0.17;;;0.10;;
23376;SDS011;14353;46.070;13.222;2022-09-17T03:00:28;0.10;;;0.10;;
23376;SDS011;14353;46.070;13.222;2022-09-17T03:03:02;0.68;;;0.10;;
23376;SDS011;14353;46.070;13.222;2022-09-17T03:05:45;0.20;;;0.20;;
23376;SDS011;14353;46.070;13.222;2022-09-17T03:08:12;0.20;;;0.20;;
23376;SDS011;14353;46.070;13.222;2022-09-17T03:10:42;0.10;;;0.10;;
23376;SDS011;14353;46.070;13.222;2022-09-17T03:13:14;0.13;;;0.10;;
23376;SDS011;14353;46.070;13.222;2022-09-17T03:15:40;0.13;;;0.13;;
23376;SDS011;14353;46.070;13.222;2022-09-17T03:18:07;0.30;;;0.20;;
23376;SDS011;14353;46.070;13.222;2022-09-17T03:20:32;0.28;;;0.20;;
23376;SDS011;14353;46.070;13.222;2022-09-17T03:22:58;0.10;;;0.10;;
23376;SDS011;14353;46.070;13.222;2022-09-17T03:25:24;0.10;;;0.10;;
23376;SDS011;14353;46.070;13.222;2022-09-17T03:27:50;0.30;;;0.10;;
23376;SDS011;14353;46.070;13.222;2022-09-17T03:30:18;0.30;;;0.20;;
23376;SDS011;14353;46.070;13.222;2022-09-17T03:32:50;0.13;;;0.10;;
23376;SDS011;14353;46.070;13.222;2022-09-17T03:35:16;0.45;;;0.10;;
23376;SDS011;14353;46.070;13.222;2022-09-17T03:37:42;0.17;;;0.17;;
23376;SDS011;14353;46.070;13.222;2022-09-17T03:40:11;0.30;;;0.20;;
23376;SDS011;14353;46.070;13.222;2022-09-17T03:42:37;0.30;;;0.20;;
23376;SDS011;14353;46.070;13.222;2022-09-17T03:45:03;0.20;;;0.20;;
23376;SDS011;14353;46.070;13.222;2022-09-17T03:47:29;0.13;;;0.13;;
23376;SDS011;14353;46.070;13.222;2022-09-17T03:49:55;0.10;;;0.10;;
23376;SDS011;14353;46.070;13.222;2022-09-17T03:52:21;0.90;;;0.25;;
23376;SDS011;14353;46.070;13.222;2022-09-17T03:54:47;0.22;;;0.20;;
23376;SDS011;14353;46.070;13.222;2022-09-17T03:57:16;0.40;;;0.20;;
23376;SDS011;14353;46.070;13.222;2022-09-17T03:59:42;0.17;;;0.17;;
23376;SDS011;14353;46.070;13.222;2022-09-17T04:02:14;0.20;;;0.10;;
23376;SDS011;14353;46.070;13.222;2022-09-17T04:04:39;0.10;;;0.10;;
23376;SDS011;14353;46.070;13.222;2022-09-17T04:07:06;0.10;;;0.10;;
23376;SDS011;14353;46.070;13.222;2022-09-17T04:09:32;0.05;;;0.00;;
23376;SDS011;14353;46.070;13.222;2022-09-17T04:11:58;0.00;;;0.00;;
23376;SDS011;14353;46.070;13.222;2022-09-17T04:14:26;0.20;;;0.20;;
23376;SDS011;14353;46.070;13.222;2022-09-17T04:16:56;0.10;;;0.10;;
23376;SDS011;14353;46.070;13.222;2022-09-17T04:19:25;0.05;;;0.05;;
23376;SDS011;14353;46.070;13.222;2022-09-17T04:21:51;0.22;;;0.20;;
23376;SDS011;14353;46.070;13.222;2022-09-17T04:24:20;0.10;;;0.10;;
23376;SDS011;14353;46.070;13.222;2022-09-17T04:26:50;0.82;;;0.10;;
23376;SDS011;14353;46.070;13.222;2022-09-17T04:29:30;0.30;;;0.13;;
23376;SDS011;14353;46.070;13.222;2022-09-17T04:31:59;0.65;;;0.20;;
23376;SDS011;14353;46.070;13.222;2022-09-17T04:34:25;0.15;;;0.15;;
23376;SDS011;14353;46.070;13.222;2022-09-17T04:36:51;0.50;;;0.30;;
23376;SDS011;14353;46.070;13.222;2022-09-17T04:39:17;0.03;;;0.03;;
23376;SDS011;14353;46.070;13.222;2022-09-17T04:41:46;0.10;;;0.10;;
23376;SDS011;14353;46.070;13.222;2022-09-17T04:44:12;0.10;;;0.10;;
23376;SDS011;14353;46.070;13.222;2022-09-17T04:46:41;0.17;;;0.10;;
23376;SDS011;14353;46.070;13.222;2022-09-17T04:49:06;0.75;;;0.20;;
23376;SDS011;14353;46.070;13.222;2022-09-17T04:51:34;0.10;;;0.10;;
23376;SDS011;14353;46.070;13.222;2022-09-17T04:54:03;0.40;;;0.22;;
23376;SDS011;14353;46.070;13.222;2022-09-17T04:56:31;0.45;;;0.20;;
23376;SDS011;14353;46.070;13.222;2022-09-17T04:58:57;0.10;;;0.10;;
23376;SDS011;14353;46.070;13.222;2022-09-17T05:01:26;0.40;;;0.10;;
23376;SDS011;14353;46.070;13.222;2022-09-17T05:03:52;0.20;;;0.08;;
23376;SDS011;14353;46.070;13.222;2022-09-17T05:06:18;0.20;;;0.10;;
23376;SDS011;14353;46.070;13.222;2022-09-17T05:08:49;0.80;;;0.22;;
23376;SDS011;14353;46.070;13.222;2022-09-17T05:11:20;0.20;;;0.20;;
23376;SDS011;14353;46.070;13.222;2022-09-17T05:13:46;0.30;;;0.10;;
23376;SDS011;14353;46.070;13.222;2022-09-17T05:16:13;0.43;;;0.17;;
23376;SDS011;14353;46.070;13.222;2022-09-17T05:18:42;0.17;;;0.10;;
23376;SDS011;14353;46.070;13.222;2022-09-17T05:21:08;0.20;;;0.20;;
23376;SDS011;14353;46.070;13.222;2022-09-17T05:23:40;0.25;;;0.10;;
23376;SDS011;14353;46.070;13.222;2022-09-17T05:26:13;0.20;;;0.00;;
23376;SDS011;14353;46.070;13.222;2022-09-17T05:28:41;0.30;;;0.10;;
23376;SDS011;14353;46.070;13.222;2022-09-17T05:31:07;0.15;;;0.10;;
23376;SDS011;14353;46.070;13.222;2022-09-17T05:33:36;0.20;;;0.20;;
23376;SDS011;14353;46.070;13.222;2022-09-17T05:36:06;0.13;;;0.10;;
23376;SDS011;14353;46.070;13.222;2022-09-17T05:38:32;0.20;;;0.20;;
23376;SDS011;14353;46.070;13.222;2022-09-17T05:41:02;0.65;;;0.25;;
23376;SDS011;14353;46.070;13.222;2022-09-17T05:43:29;1.92;;;0.22;;
23376;SDS011;14353;46.070;13.222;2022-09-17T05:46:01;0.70;;;0.30;;
23376;SDS011;14353;46.070;13.222;2022-09-17T05:48:35;3.55;;;0.77;;
23376;SDS011;14353;46.070;13.222;2022-09-17T05:51:03;4.50;;;0.50;;
23376;SDS011;14353;46.070;13.222;2022-09-17T05:53:30;3.50;;;0.55;;
23376;SDS011;14353;46.070;13.222;2022-09-17T05:56:05;2.90;;;0.40;;
23376;SDS011;14353;46.070;13.222;2022-09-17T05:58:34;3.90;;;0.50;;
23376;SDS011;14353;46.070;13.222;2022-09-17T06:01:03;0.95;;;0.40;;
23376;SDS011;14353;46.070;13.222;2022-09-17T06:06:20;3.28;;;0.57;;
23376;SDS011;14353;46.070;13.222;2022-09-17T06:08:49;3.25;;;0.60;;
23376;SDS011;14353;46.070;13.222;2022-09-17T06:11:21;5.63;;;0.63;;
23376;SDS011;14353;46.070;13.222;2022-09-17T06:13:56;2.60;;;0.63;;
23376;SDS011;14353;46.070;13.222;2022-09-17T06:16:25;3.53;;;0.60;;
23376;SDS011;14353;46.070;13.222;2022-09-17T06:18:55;1.63;;;0.65;;
23376;SDS011;14353;46.070;13.222;2022-09-17T06:21:21;6.50;;;0.60;;
23376;SDS011;14353;46.070;13.222;2022-09-17T06:23:51;2.45;;;0.60;;
23376;SDS011;14353;46.070;13.222;2022-09-17T06:26:25;4.88;;;0.70;;
23376;SDS011;14353;46.070;13.222;2022-09-17T06:28:54;1.88;;;0.50;;
23376;SDS011;14353;46.070;13.222;2022-09-17T06:31:31;1.95;;;0.70;;
23376;SDS011;14353;46.070;13.222;2022-09-17T06:33:58;2.58;;;0.70;;
23376;SDS011;14353;46.070;13.222;2022-09-17T06:36:36;3.05;;;0.63;;
23376;SDS011;14353;46.070;13.222;2022-09-17T06:39:01;2.13;;;0.63;;
23376;SDS011;14353;46.070;13.222;2022-09-17T06:41:28;1.08;;;0.50;;
23376;SDS011;14353;46.070;13.222;2022-09-17T06:43:54;1.50;;;0.50;;
23376;SDS011;14353;46.070;13.222;2022-09-17T06:46:23;1.70;;;0.60;;
23376;SDS011;14353;46.070;13.222;2022-09-17T06:48:56;2.35;;;0.60;;
23376;SDS011;14353;46.070;13.222;2022-09-17T06:51:28;3.83;;;0.60;;
23376;SDS011;14353;46.070;13.222;2022-09-17T06:53:58;1.17;;;0.53;;
23376;SDS011;14353;46.070;13.222;2022-09-17T06:56:27;3.30;;;0.50;;
23376;SDS011;14353;46.070;13.222;2022-09-17T06:58:58;2.90;;;0.80;;
23376;SDS011;14353;46.070;13.222;2022-09-17T07:01:24;2.33;;;0.50;;
23376;SDS011;14353;46.070;13.222;2022-09-17T07:04:11;2.15;;;0.70;;
23376;SDS011;14353;46.070;13.222;2022-09-17T07:09:51;2.45;;;0.60;;
23376;SDS011;14353;46.070;13.222;2022-09-17T07:12:18;1.25;;;0.55;;
23376;SDS011;14353;46.070;13.222;2022-09-17T07:14:45;5.30;;;0.70;;
23376;SDS011;14353;46.070;13.222;2022-09-17T07:17:27;1.60;;;0.47;;
23376;SDS011;14353;46.070;13.222;2022-09-17T07:19:54;1.83;;;0.73;;
23376;SDS011;14353;46.070;13.222;2022-09-17T07:22:29;1.73;;;0.50;;
23376;SDS011;14353;46.070;13.222;2022-09-17T07:25:02;1.15;;;0.65;;
23376;SDS011;14353;46.070;13.222;2022-09-17T07:28:17;2.05;;;0.60;;
23376;SDS011;14353;46.070;13.222;2022-09-17T07:33:24;1.23;;;0.77;;
23376;SDS011;14353;46.070;13.222;2022-09-17T07:35:57;1.58;;;0.60;;
23376;SDS011;14353;46.070;13.222;2022-09-17T07:38:38;3.08;;;0.60;;
23376;SDS011;14353;46.070;13.222;2022-09-17T07:41:09;1.88;;;0.70;;
23376;SDS011;14353;46.070;13.222;2022-09-17T07:43:40;2.15;;;0.55;;
23376;SDS011;14353;46.070;13.222;2022-09-17T07:46:09;3.20;;;0.70;;
23376;SDS011;14353;46.070;13.222;2022-09-17T07:48:40;1.35;;;0.63;;
23376;SDS011;14353;46.070;13.222;2022-09-17T07:51:06;0.95;;;0.50;;
23376;SDS011;14353;46.070;13.222;2022-09-17T07:53:32;1.20;;;0.50;;
23376;SDS011;14353;46.070;13.222;2022-09-17T07:55:58;2.58;;;0.60;;
23376;SDS011;14353;46.070;13.222;2022-09-17T07:58:28;1.60;;;0.65;;
23376;SDS011;14353;46.070;13.222;2022-09-17T08:01:09;1.48;;;0.70;;
23376;SDS011;14353;46.070;13.222;2022-09-17T08:03:49;0.50;;;0.50;;
23376;SDS011;14353;46.070;13.222;2022-09-17T08:06:35;0.68;;;0.57;;
23376;SDS011;14353;46.070;13.222;2022-09-17T08:09:05;2.83;;;0.70;;
23376;SDS011;14353;46.070;13.222;2022-09-17T08:11:40;2.08;;;0.70;;
23376;SDS011;14353;46.070;13.222;2022-09-17T08:14:11;1.42;;;0.70;;
23376;SDS011;14353;46.070;13.222;2022-09-17T08:16:53;3.17;;;0.68;;
23376;SDS011;14353;46.070;13.222;2022-09-17T08:19:20;0.90;;;0.60;;
23376;SDS011;14353;46.070;13.222;2022-09-17T08:21:50;0.55;;;0.50;;
23376;SDS011;14353;46.070;13.222;2022-09-17T08:24:41;0.80;;;0.70;;
23376;SDS011;14353;46.070;13.222;2022-09-17T08:27:35;1.52;;;0.60;;
23376;SDS011;14353;46.070;13.222;2022-09-17T08:30:07;1.48;;;0.70;;
23376;SDS011;14353;46.070;13.222;2022-09-17T08:33:02;3.67;;;0.70;;
23376;SDS011;14353;46.070;13.222;2022-09-17T08:35:38;1.15;;;0.70;;
23376;SDS011;14353;46.070;13.222;2022-09-17T08:38:20;2.78;;;0.70;;
23376;SDS011;14353;46.070;13.222;2022-09-17T08:52:20;1.25;;;0.68;;
23376;SDS011;14353;46.070;13.222;2022-09-17T08:55:27;1.27;;;0.70;;
23376;SDS011;14353;46.070;13.222;2022-09-17T09:06:42;3.20;;;0.80;;
23376;SDS011;14353;46.070;13.222;2022-09-17T09:09:27;2.65;;;0.70;;
23376;SDS011;14353;46.070;13.222;2022-09-17T09:12:02;4.82;;;0.80;;
23376;SDS011;14353;46.070;13.222;2022-09-17T09:17:19;2.55;;;1.10;;
23376;SDS011;14353;46.070;13.222;2022-09-17T09:19:53;8.15;;;1.42;;
23376;SDS011;14353;46.070;13.222;2022-09-17T09:30:42;22.02;;;2.17;;
23376;SDS011;14353;46.070;13.222;2022-09-17T09:33:16;16.02;;;1.70;;
23376;SDS011;14353;46.070;13.222;2022-09-17T09:35:46;13.88;;;1.55;;
23376;SDS011;14353;46.070;13.222;2022-09-17T09:41:12;5.95;;;1.30;;
23376;SDS011;14353;46.070;13.222;2022-09-17T09:51:49;11.10;;;1.20;;
23376;SDS011;14353;46.070;13.222;2022-09-17T09:57:17;4.97;;;1.02;;
23376;SDS011;14353;46.070;13.222;2022-09-17T10:03:12;4.03;;;0.80;;
23376;SDS011;14353;46.070;13.222;2022-09-17T10:05:57;3.58;;;0.90;;
23376;SDS011;14353;46.070;13.222;2022-09-17T10:08:36;13.57;;;1.35;;
23376;SDS011;14353;46.070;13.222;2022-09-17T10:13:36;9.43;;;0.98;;
23376;SDS011;14353;46.070;13.222;2022-09-17T10:16:14;7.22;;;1.27;;
23376;SDS011;14353;46.070;13.222;2022-09-17T10:18:42;4.95;;;0.90;;
23376;SDS011;14353;46.070;13.222;2022-09-17T10:21:19;6.75;;;1.50;;
23376;SDS011;14353;46.070;13.222;2022-09-17T10:23:47;12.50;;;1.45;;
23376;SDS011;14353;46.070;13.222;2022-09-17T10:26:47;21.13;;;1.25;;
23376;SDS011;14353;46.070;13.222;2022-09-17T10:29:14;8.90;;;1.30;;
23376;SDS011;14353;46.070;13.222;2022-09-17T10:31:50;8.20;;;1.40;;
23376;SDS011;14353;46.070;13.222;2022-09-17T10:34:18;3.97;;;1.00;;
23376;SDS011;14353;46.070;13.222;2022-09-17T10:36:49;6.72;;;1.20;;
23376;SDS011;14353;46.070;13.222;2022-09-17T10:39:21;7.35;;;1.23;;
23376;SDS011;14353;46.070;13.222;2022-09-17T10:41:59;7.40;;;1.37;;
23376;SDS011;14353;46.070;13.222;2022-09-17T10:44:49;14.40;;;1.20;;
23376;SDS011;14353;46.070;13.222;2022-09-17T10:52:33;8.57;;;0.75;;
23376;SDS011;14353;46.070;13.222;2022-09-17T11:12:09;2.72;;;0.57;;
23376;SDS011;14353;46.070;13.222;2022-09-17T11:27:00;6.22;;;0.60;;
23376;SDS011;14353;46.070;13.222;2022-09-17T11:29:47;7.68;;;0.93;;
23376;SDS011;14353;46.070;13.222;2022-09-17T11:32:48;2.78;;;0.60;;
23376;SDS011;14353;46.070;13.222;2022-09-17T11:35:27;4.03;;;0.85;;
23376;SDS011;14353;46.070;13.222;2022-09-17T11:40:47;5.13;;;1.00;;
23376;SDS011;14353;46.070;13.222;2022-09-17T11:43:39;7.53;;;0.88;;
23376;SDS011;14353;46.070;13.222;2022-09-17T11:46:29;5.22;;;0.85;;
23376;SDS011;14353;46.070;13.222;2022-09-17T11:49:36;2.60;;;0.70;;
23376;SDS011;14353;46.070;13.222;2022-09-17T11:52:26;1.63;;;0.88;;
23376;SDS011;14353;46.070;13.222;2022-09-17T11:55:32;3.58;;;0.60;;
23376;SDS011;14353;46.070;13.222;2022-09-17T11:58:11;2.75;;;0.85;;
23376;SDS011;14353;46.070;13.222;2022-09-17T12:00:50;5.40;;;0.73;;
23376;SDS011;14353;46.070;13.222;2022-09-17T12:03:33;6.85;;;0.75;;
23376;SDS011;14353;46.070;13.222;2022-09-17T12:06:10;3.50;;;0.70;;
23376;SDS011;14353;46.070;13.222;2022-09-17T12:11:22;2.60;;;0.77;;
23376;SDS011;14353;46.070;13.222;2022-09-17T12:14:05;2.22;;;0.65;;
23376;SDS011;14353;46.070;13.222;2022-09-17T12:17:00;3.20;;;0.70;;
23376;SDS011;14353;46.070;13.222;2022-09-17T12:22:18;2.03;;;0.77;;
23376;SDS011;14353;46.070;13.222;2022-09-17T12:25:13;2.30;;;0.70;;
23376;SDS011;14353;46.070;13.222;2022-09-17T12:27:46;3.00;;;0.70;;
23376;SDS011;14353;46.070;13.222;2022-09-17T12:30:39;3.08;;;0.60;;
23376;SDS011;14353;46.070;13.222;2022-09-17T12:33:23;3.92;;;0.77;;
23376;SDS011;14353;46.070;13.222;2022-09-17T12:41:34;6.07;;;0.90;;
23376;SDS011;14353;46.070;13.222;2022-09-17T12:44:28;3.35;;;0.80;;
23376;SDS011;14353;46.070;13.222;2022-09-17T12:53:28;1.85;;;0.60;;
23376;SDS011;14353;46.070;13.222;2022-09-17T12:59:06;1.27;;;0.70;;
23376;SDS011;14353;46.070;13.222;2022-09-17T13:07:09;1.35;;;0.70;;
23376;SDS011;14353;46.070;13.222;2022-09-17T13:09:55;1.65;;;0.80;;
23376;SDS011;14353;46.070;13.222;2022-09-17T13:23:48;2.63;;;0.52;;
23376;SDS011;14353;46.070;13.222;2022-09-17T13:26:17;2.95;;;0.70;;
23376;SDS011;14353;46.070;13.222;2022-09-17T13:28:59;4.35;;;0.70;;
23376;SDS011;14353;46.070;13.222;2022-09-17T13:47:31;0.85;;;0.47;;
23376;SDS011;14353;46.070;13.222;2022-09-17T13:50:06;2.08;;;0.52;;
23376;SDS011;14353;46.070;13.222;2022-09-17T13:52:39;2.23;;;0.70;;
23376;SDS011;14353;46.070;13.222;2022-09-17T13:57:58;1.05;;;0.52;;
23376;SDS011;14353;46.070;13.222;2022-09-17T14:00:47;1.85;;;0.60;;
23376;SDS011;14353;46.070;13.222;2022-09-17T14:24:34;1.75;;;0.50;;
23376;SDS011;14353;46.070;13.222;2022-09-17T14:27:12;2.92;;;0.70;;
23376;SDS011;14353;46.070;13.222;2022-09-17T14:32:35;1.25;;;0.50;;
23376;SDS011;14353;46.070;13.222;2022-09-17T14:35:22;1.27;;;0.40;;
23376;SDS011;14353;46.070;13.222;2022-09-17T14:37:55;1.80;;;0.50;;
23376;SDS011;14353;46.070;13.222;2022-09-17T14:40:26;1.80;;;0.63;;
23376;SDS011;14353;46.070;13.222;2022-09-17T14:42:54;1.67;;;0.60;;
23376;SDS011;14353;46.070;13.222;2022-09-17T14:48:16;1.15;;;0.55;;
23376;SDS011;14353;46.070;13.222;2022-09-17T14:50:52;1.90;;;0.47;;
23376;SDS011;14353;46.070;13.222;2022-09-17T14:53:38;1.83;;;0.50;;
23376;SDS011;14353;46.070;13.222;2022-09-17T14:56:04;1.60;;;0.50;;
23376;SDS011;14353;46.070;13.222;2022-09-17T14:58:34;1.27;;;0.40;;
23376;SDS011;14353;46.070;13.222;2022-09-17T15:01:23;0.85;;;0.40;;
23376;SDS011;14353;46.070;13.222;2022-09-17T15:07:07;1.20;;;0.50;;
23376;SDS011;14353;46.070;13.222;2022-09-17T15:09:36;2.00;;;0.60;;
23376;SDS011;14353;46.070;13.222;2022-09-17T15:12:01;0.90;;;0.50;;
23376;SDS011;14353;46.070;13.222;2022-09-17T15:14:30;2.58;;;0.93;;
23376;SDS011;14353;46.070;13.222;2022-09-17T15:17:04;0.77;;;0.55;;
23376;SDS011;14353;46.070;13.222;2022-09-17T15:22:12;1.83;;;0.70;;
23376;SDS011;14353;46.070;13.222;2022-09-17T15:25:03;0.93;;;0.38;;
23376;SDS011;14353;46.070;13.222;2022-09-17T15:27:39;0.77;;;0.40;;
23376;SDS011;14353;46.070;13.222;2022-09-17T15:32:56;0.55;;;0.43;;
23376;SDS011;14353;46.070;13.222;2022-09-17T15:37:57;2.65;;;0.60;;
23376;SDS011;14353;46.070;13.222;2022-09-17T15:40:30;3.42;;;0.50;;
23376;SDS011;14353;46.070;13.222;2022-09-17T15:45:48;0.70;;;0.50;;
23376;SDS011;14353;46.070;13.222;2022-09-17T15:48:19;1.35;;;0.35;;
23376;SDS011;14353;46.070;13.222;2022-09-17T15:51:11;1.23;;;0.45;;
23376;SDS011;14353;46.070;13.222;2022-09-17T15:54:18;1.35;;;0.40;;
23376;SDS011;14353;46.070;13.222;2022-09-17T15:56:55;0.50;;;0.30;;
23376;SDS011;14353;46.070;13.222;2022-09-17T15:59:25;0.43;;;0.32;;
23376;SDS011;14353;46.070;13.222;2022-09-17T16:01:54;1.23;;;0.50;;
23376;SDS011;14353;46.070;13.222;2022-09-17T16:04:22;0.98;;;0.43;;
23376;SDS011;14353;46.070;13.222;2022-09-17T16:12:15;0.38;;;0.38;;
23376;SDS011;14353;46.070;13.222;2022-09-17T16:14:56;0.43;;;0.43;;
23376;SDS011;14353;46.070;13.222;2022-09-17T16:17:29;0.43;;;0.40;;
23376;SDS011;14353;46.070;13.222;2022-09-17T16:20:04;0.60;;;0.40;;
23376;SDS011;14353;46.070;13.222;2022-09-17T16:25:22;0.55;;;0.40;;
23376;SDS011;14353;46.070;13.222;2022-09-17T16:28:02;1.52;;;0.60;;
23376;SDS011;14353;46.070;13.222;2022-09-17T16:30:34;0.52;;;0.40;;
23376;SDS011;14353;46.070;13.222;2022-09-17T16:33:12;0.60;;;0.50;;
23376;SDS011;14353;46.070;13.222;2022-09-17T16:35:42;0.40;;;0.40;;
23376;SDS011;14353;46.070;13.222;2022-09-17T16:38:09;1.48;;;0.57;;
23376;SDS011;14353;46.070;13.222;2022-09-17T16:40:43;0.73;;;0.38;;
23376;SDS011;14353;46.070;13.222;2022-09-17T16:43:11;1.02;;;0.40;;
23376;SDS011;14353;46.070;13.222;2022-09-17T16:45:37;0.30;;;0.30;;
23376;SDS011;14353;46.070;13.222;2022-09-17T16:48:04;0.80;;;0.40;;
23376;SDS011;14353;46.070;13.222;2022-09-17T16:50:30;0.85;;;0.30;;
23376;SDS011;14353;46.070;13.222;2022-09-17T16:52:56;0.35;;;0.30;;
23376;SDS011;14353;46.070;13.222;2022-09-17T16:55:25;0.52;;;0.40;;
23376;SDS011;14353;46.070;13.222;2022-09-17T16:57:55;0.63;;;0.40;;
23376;SDS011;14353;46.070;13.222;2022-09-17T17:00:22;0.30;;;0.30;;
23376;SDS011;14353;46.070;13.222;2022-09-17T17:02:53;0.98;;;0.40;;
23376;SDS011;14353;46.070;13.222;2022-09-17T17:05:20;1.10;;;0.30;;
23376;SDS011;14353;46.070;13.222;2022-09-17T17:07:47;0.30;;;0.30;;
23376;SDS011;14353;46.070;13.222;2022-09-17T17:10:13;0.65;;;0.40;;
23376;SDS011;14353;46.070;13.222;2022-09-17T17:12:39;0.98;;;0.55;;
23376;SDS011;14353;46.070;13.222;2022-09-17T17:15:05;0.60;;;0.38;;
23376;SDS011;14353;46.070;13.222;2022-09-17T17:17:34;0.68;;;0.30;;
23376;SDS011;14353;46.070;13.222;2022-09-17T17:20:01;1.23;;;0.40;;
23376;SDS011;14353;46.070;13.222;2022-09-17T17:22:37;0.38;;;0.20;;
23376;SDS011;14353;46.070;13.222;2022-09-17T17:25:10;0.40;;;0.40;;
23376;SDS011;14353;46.070;13.222;2022-09-17T17:27:41;0.25;;;0.25;;
23376;SDS011;14353;46.070;13.222;2022-09-17T17:30:09;0.50;;;0.40;;
23376;SDS011;14353;46.070;13.222;2022-09-17T17:32:41;0.55;;;0.38;;
23376;SDS011;14353;46.070;13.222;2022-09-17T17:35:17;0.50;;;0.40;;
23376;SDS011;14353;46.070;13.222;2022-09-17T17:37:46;0.50;;;0.45;;
23376;SDS011;14353;46.070;13.222;2022-09-17T17:40:15;1.13;;;0.40;;
23376;SDS011;14353;46.070;13.222;2022-09-17T17:42:41;0.40;;;0.40;;
23376;SDS011;14353;46.070;13.222;2022-09-17T17:45:08;0.55;;;0.40;;
23376;SDS011;14353;46.070;13.222;2022-09-17T17:47:34;0.30;;;0.30;;
23376;SDS011;14353;46.070;13.222;2022-09-17T17:50:06;0.40;;;0.40;;
23376;SDS011;14353;46.070;13.222;2022-09-17T17:52:32;0.30;;;0.30;;
23376;SDS011;14353;46.070;13.222;2022-09-17T17:55:00;0.40;;;0.30;;
23376;SDS011;14353;46.070;13.222;2022-09-17T17:57:29;0.50;;;0.40;;
23376;SDS011;14353;46.070;13.222;2022-09-17T17:59:55;0.65;;;0.40;;
23376;SDS011;14353;46.070;13.222;2022-09-17T18:02:26;0.47;;;0.40;;
23376;SDS011;14353;46.070;13.222;2022-09-17T18:04:53;1.23;;;0.40;;
23376;SDS011;14353;46.070;13.222;2022-09-17T18:07:19;1.08;;;0.52;;
23376;SDS011;14353;46.070;13.222;2022-09-17T18:09:44;0.93;;;0.30;;
23376;SDS011;14353;46.070;13.222;2022-09-17T18:12:11;0.30;;;0.30;;
23376;SDS011;14353;46.070;13.222;2022-09-17T18:14:36;0.45;;;0.30;;
23376;SDS011;14353;46.070;13.222;2022-09-17T18:17:05;0.57;;;0.45;;
23376;SDS011;14353;46.070;13.222;2022-09-17T18:19:31;0.50;;;0.50;;
23376;SDS011;14353;46.070;13.222;2022-09-17T18:21:57;0.30;;;0.30;;
23376;SDS011;14353;46.070;13.222;2022-09-17T18:24:23;0.70;;;0.40;;
23376;SDS011;14353;46.070;13.222;2022-09-17T18:26:49;0.52;;;0.30;;
23376;SDS011;14353;46.070;13.222;2022-09-17T18:29:14;0.60;;;0.43;;
23376;SDS011;14353;46.070;13.222;2022-09-17T18:31:45;0.30;;;0.30;;
23376;SDS011;14353;46.070;13.222;2022-09-17T18:34:14;0.40;;;0.30;;
23376;SDS011;14353;46.070;13.222;2022-09-17T18:36:41;0.40;;;0.40;;
23376;SDS011;14353;46.070;13.222;2022-09-17T18:39:11;0.40;;;0.40;;
23376;SDS011;14353;46.070;13.222;2022-09-17T18:41:39;0.38;;;0.38;;
23376;SDS011;14353;46.070;13.222;2022-09-17T18:44:09;0.30;;;0.30;;
23376;SDS011;14353;46.070;13.222;2022-09-17T18:46:35;0.60;;;0.40;;
23376;SDS011;14353;46.070;13.222;2022-09-17T18:49:02;0.20;;;0.20;;
23376;SDS011;14353;46.070;13.222;2022-09-17T18:51:28;0.22;;;0.20;;
23376;SDS011;14353;46.070;13.222;2022-09-17T18:53:54;0.30;;;0.30;;
23376;SDS011;14353;46.070;13.222;2022-09-17T18:58:54;0.43;;;0.40;;
23376;SDS011;14353;46.070;13.222;2022-09-17T19:01:25;0.30;;;0.30;;
23376;SDS011;14353;46.070;13.222;2022-09-17T19:03:53;0.25;;;0.20;;
23376;SDS011;14353;46.070;13.222;2022-09-17T19:06:20;0.57;;;0.38;;
23376;SDS011;14353;46.070;13.222;2022-09-17T19:08:46;0.75;;;0.40;;